createdAt,value
2023-09-17T00:01:47.970Z,100467.03
2023-09-17T00:04:16.086Z,100475.06
2023-09-17T00:06:45.471Z,100482.06
2023-09-17T00:09:13.765Z,100483.81
2023-09-17T00:11:41.879Z,100488.22
2023-09-17T00:14:10.148Z,100476.75
2023-09-17T00:16:39.729Z,100472.53
2023-09-17T00:19:08.087Z,100471.63
2023-09-17T00:21:35.906Z,100465.56
2023-09-17T00:24:05.785Z,100462.03
2023-09-17T00:26:33.655Z,100460.34
2023-09-17T00:29:02.032Z,100467.41
2023-09-17T00:31:30.113Z,100466.72
2023-09-17T00:33:58.038Z,100479.03
2023-09-17T00:36:25.976Z,100474.50
2023-09-17T00:38:53.783Z,100469.31
2023-09-17T00:41:22.956Z,100464.09
2023-09-17T00:43:51.069Z,100451.88
2023-09-17T00:46:20.685Z,100448.44
2023-09-17T00:48:49.102Z,100443.28
2023-09-17T00:51:17.617Z,100436.41
2023-09-17T00:53:46.129Z,100437.38
2023-09-17T00:56:15.738Z,100437.53
2023-09-17T00:58:45.574Z,100431.38
2023-09-17T01:01:13.777Z,100430.53
2023-09-17T01:03:41.937Z,100428.03
2023-09-17T01:06:12.325Z,100420.19
2023-09-17T01:08:41.989Z,100418.38
2023-09-17T01:11:12.287Z,100418.44
2023-09-17T01:13:50.413Z,100410.50
2023-09-17T01:16:23.289Z,100408.78
2023-09-17T01:18:54.404Z,100407.88
2023-09-17T01:21:31.148Z,100409.66
2023-09-17T01:24:21.414Z,100411.38
2023-09-17T01:27:01.064Z,100407.78
2023-09-17T01:29:33.317Z,100413.94
2023-09-17T01:32:01.383Z,100413.22
2023-09-17T01:34:31.472Z,100419.28
2023-09-17T01:37:04.120Z,100422.81
2023-09-17T01:39:42.107Z,100429.75
2023-09-17T01:42:14.057Z,100455.44
2023-09-17T01:44:43.807Z,100461.66
2023-09-17T01:47:12.450Z,100456.56
2023-09-17T01:49:41.794Z,100443.44
2023-09-17T01:52:11.574Z,100430.97
2023-09-17T01:54:39.801Z,100424.81
2023-09-17T01:57:09.298Z,100431.72
2023-09-17T01:59:38.531Z,100431.56
2023-09-17T02:02:07.480Z,100438.56
2023-09-17T02:04:36.664Z,100436.69
2023-09-17T02:07:05.179Z,100444.59
2023-09-17T02:09:32.974Z,100441.00
2023-09-17T02:12:00.805Z,100434.94
2023-09-17T02:14:28.816Z,100433.25
2023-09-17T02:16:58.213Z,100441.25
2023-09-17T02:19:26.684Z,100442.16
2023-09-17T02:21:54.694Z,100443.72
2023-09-17T02:24:23.033Z,100434.13
2023-09-17T02:26:51.094Z,100438.47
2023-09-17T02:29:21.556Z,100432.38
2023-09-17T02:31:49.513Z,100429.78
2023-09-17T02:34:18.819Z,100422.94
2023-09-17T02:36:46.819Z,100432.53
2023-09-17T02:39:14.945Z,100427.31
2023-09-17T02:41:45.882Z,100429.97
2023-09-17T02:44:14.322Z,100436.94
2023-09-17T02:46:42.278Z,100426.50
2023-09-17T02:49:10.897Z,100426.53
2023-09-17T02:51:40.285Z,100430.00
2023-09-17T02:54:08.107Z,100426.56
2023-09-17T02:56:35.948Z,100422.94
2023-09-17T02:59:04.630Z,100422.13
2023-09-17T03:01:32.674Z,100420.28
2023-09-17T03:04:01.628Z,100424.66
2023-09-17T03:06:31.658Z,100429.00
2023-09-17T03:09:02.295Z,100446.72
2023-09-17T03:11:30.214Z,100447.63
2023-09-17T03:14:02.957Z,100437.16
2023-09-17T03:16:31.249Z,100430.88
2023-09-17T03:18:59.102Z,100414.22
2023-09-17T03:21:27.064Z,100407.25
2023-09-17T03:23:54.996Z,100410.66
2023-09-17T03:26:25.707Z,100405.50
2023-09-17T03:28:53.696Z,100412.47
2023-09-17T03:31:22.200Z,100414.19
2023-09-17T03:33:51.049Z,100410.66
2023-09-17T03:36:19.195Z,100417.56
2023-09-17T03:38:47.105Z,100404.53
2023-09-17T03:41:14.957Z,100408.91
2023-09-17T03:43:44.904Z,100394.06
2023-09-17T03:46:13.718Z,100399.41
2023-09-17T03:48:41.787Z,100391.56
2023-09-17T03:51:11.722Z,100386.22
2023-09-17T03:53:41.361Z,100387.13
2023-09-17T03:56:12.179Z,100387.16
2023-09-17T03:58:40.223Z,100387.16
2023-09-17T04:01:10.489Z,100391.59
2023-09-17T04:03:38.869Z,100385.50
2023-09-17T04:06:07.254Z,100375.81
2023-09-17T04:08:35.136Z,100371.41
2023-09-17T04:11:05.444Z,100370.59
2023-09-17T04:13:33.428Z,100362.66
2023-09-17T04:16:01.512Z,100354.78
2023-09-17T04:18:30.914Z,100359.22
2023-09-17T04:20:58.737Z,100354.88
2023-09-17T04:23:27.044Z,100349.63
2023-09-17T04:25:56.135Z,100346.97
2023-09-17T04:28:24.579Z,100346.09
2023-09-17T04:30:52.450Z,100351.31
2023-09-17T04:33:22.008Z,100346.97
2023-09-17T04:35:57.223Z,100346.16
2023-09-17T04:38:25.344Z,100353.13
2023-09-17T04:40:53.268Z,100356.63
2023-09-17T04:43:22.446Z,100358.38
2023-09-17T04:45:50.751Z,100372.34
2023-09-17T04:48:26.772Z,100368.75
2023-09-17T04:50:56.280Z,100377.38
2023-09-17T04:53:24.194Z,100373.75
2023-09-17T04:55:52.130Z,100368.41
2023-09-17T04:58:25.083Z,100365.75
2023-09-17T05:00:55.008Z,100366.75
2023-09-17T05:03:23.701Z,100364.19
2023-09-17T05:05:52.166Z,100370.22
2023-09-17T05:08:22.011Z,100375.53
2023-09-17T05:10:50.191Z,100372.00
2023-09-17T05:13:20.913Z,100373.63
2023-09-17T05:15:49.735Z,100366.53
2023-09-17T05:18:17.787Z,100363.03
2023-09-17T05:20:49.421Z,100364.91
2023-09-17T05:23:18.733Z,100368.28
2023-09-17T05:25:48.670Z,100357.91
2023-09-17T05:28:16.867Z,100360.53
2023-09-17T05:30:45.795Z,100352.78
2023-09-17T05:33:13.762Z,100354.63
2023-09-17T05:35:43.201Z,100363.41
2023-09-17T05:38:11.057Z,100357.19
2023-09-17T05:40:38.977Z,100354.56
2023-09-17T05:43:08.375Z,100357.97
2023-09-17T05:45:36.407Z,100362.38
2023-09-17T05:48:05.401Z,100353.69
2023-09-17T05:50:34.832Z,100349.47
2023-09-17T05:53:03.079Z,100352.09
2023-09-17T05:55:33.014Z,100366.00
2023-09-17T05:58:02.200Z,100355.66
2023-09-17T06:00:31.819Z,100360.91
2023-09-17T06:03:00.695Z,100358.25
2023-09-17T06:05:28.758Z,100360.00
2023-09-17T06:07:56.744Z,100364.34
2023-09-17T06:10:27.555Z,100356.31
2023-09-17T06:12:56.010Z,100352.78
2023-09-17T06:15:24.332Z,100356.28
2023-09-17T06:17:53.605Z,100358.00
2023-09-17T06:20:21.753Z,100358.88
2023-09-17T06:22:49.980Z,100356.09
2023-09-17T06:25:18.523Z,100352.56
2023-09-17T06:27:46.716Z,100357.78
2023-09-17T06:30:16.718Z,100356.06
2023-09-17T06:32:45.023Z,100348.84
2023-09-17T06:35:14.499Z,100352.34
2023-09-17T06:37:42.746Z,100346.81
2023-09-17T06:40:15.136Z,100351.25
2023-09-17T06:42:43.146Z,100360.59
2023-09-17T06:45:12.429Z,100352.25
2023-09-17T06:47:40.867Z,100357.69
2023-09-17T06:50:09.148Z,100361.06
2023-09-17T06:52:38.470Z,100355.91
2023-09-17T06:55:06.527Z,100359.41
2023-09-17T06:57:34.539Z,100355.66
2023-09-17T07:00:02.525Z,100351.09
2023-09-17T07:02:30.484Z,100343.97
2023-09-17T07:05:01.802Z,100337.28
2023-09-17T07:07:29.926Z,100334.34
2023-09-17T07:09:59.126Z,100327.66
2023-09-17T07:12:27.186Z,100333.91
2023-09-17T07:14:55.119Z,100332.91
2023-09-17T07:17:23.097Z,100335.31
2023-09-17T07:19:51.085Z,100332.50
2023-09-17T07:22:18.989Z,100337.81
2023-09-17T07:24:46.943Z,100336.84
2023-09-17T07:27:16.344Z,100341.78
2023-09-17T07:29:46.636Z,100339.47
2023-09-17T07:32:14.725Z,100342.69
2023-09-17T07:34:42.653Z,100329.44
2023-09-17T07:37:10.685Z,100326.28
2023-09-17T07:39:39.580Z,100325.31
2023-09-17T07:42:07.562Z,100329.66
2023-09-17T07:44:36.728Z,100337.88
2023-09-17T07:47:06.789Z,100330.47
2023-09-17T07:49:36.474Z,100330.69
2023-09-17T07:52:05.067Z,100327.25
2023-09-17T07:54:39.294Z,100326.78
2023-09-17T07:57:07.871Z,100329.53
2023-09-17T07:59:37.148Z,100325.19
2023-09-17T08:02:05.376Z,100329.75
2023-09-17T08:04:33.792Z,100326.41
2023-09-17T08:07:01.796Z,100325.59
2023-09-17T08:09:30.648Z,100327.28
2023-09-17T08:11:59.527Z,100323.00
2023-09-17T08:14:28.094Z,100323.75
2023-09-17T08:16:57.361Z,100327.88
2023-09-17T08:19:25.452Z,100327.94
2023-09-17T08:21:53.334Z,100326.44
2023-09-17T08:24:21.812Z,100328.09
2023-09-17T08:26:50.231Z,100321.13
2023-09-17T08:31:23.371Z,100313.41
2023-09-17T08:34:01.744Z,100318.94
2023-09-17T08:36:30.358Z,100300.13
2023-09-17T09:26:02.370Z,100304.88
2023-09-17T09:28:32.890Z,100298.56
2023-09-17T09:31:00.850Z,100298.41
2023-09-17T09:33:29.650Z,100291.13
2023-09-17T09:35:57.867Z,100287.25
2023-09-17T09:38:25.758Z,100284.66
2023-09-17T09:40:54.948Z,100293.97
2023-09-17T09:43:33.957Z,100296.25
2023-09-17T09:46:06.669Z,100293.13
2023-09-17T09:48:38.075Z,100288.41
2023-09-17T09:51:06.138Z,100285.41
2023-09-17T09:53:34.173Z,100293.28
2023-09-17T09:56:05.351Z,100282.84
2023-09-17T09:58:35.081Z,100287.13
2023-09-17T10:01:04.894Z,100289.34
2023-09-17T10:03:34.814Z,100285.59
2023-09-17T10:06:07.918Z,100282.28
2023-09-17T10:08:38.986Z,100289.88
2023-09-17T10:11:08.414Z,100283.66
2023-09-17T10:13:38.727Z,100287.44
2023-09-17T10:16:07.873Z,100286.16
2023-09-17T10:18:39.276Z,100280.28
2023-09-17T10:21:07.820Z,100278.34
2023-09-17T10:23:37.678Z,100282.34
2023-09-17T10:26:08.182Z,100283.50
2023-09-17T10:28:39.525Z,100271.63
2023-09-17T10:31:09.565Z,100281.19
2023-09-17T10:33:40.608Z,100273.53
2023-09-17T10:36:09.468Z,100271.97
2023-09-17T10:38:40.563Z,100262.63
2023-09-17T10:41:09.712Z,100277.75
2023-09-17T10:43:40.730Z,100275.25
2023-09-17T10:46:13.024Z,100271.59
2023-09-17T10:48:43.445Z,100270.88
2023-09-17T10:51:13.159Z,100262.88
2023-09-17T10:53:41.029Z,100252.84
2023-09-17T10:56:11.698Z,100257.03
2023-09-17T10:58:44.526Z,100265.72
2023-09-17T11:01:17.781Z,100261.00
2023-09-17T11:03:52.331Z,100252.69
2023-09-17T11:06:26.903Z,100260.53
2023-09-17T11:08:57.265Z,100259.94
2023-09-17T11:11:31.203Z,100252.47
2023-09-17T11:14:00.626Z,100249.13
2023-09-17T11:16:32.744Z,100258.09
2023-09-17T11:19:10.577Z,100239.50
2023-09-17T11:21:41.562Z,100251.69
2023-09-17T11:24:14.470Z,100240.31
2023-09-17T11:26:46.181Z,100249.31
2023-09-17T11:29:18.566Z,100237.06
2023-09-17T11:32:05.301Z,100245.63
2023-09-17T11:34:37.258Z,100236.28
2023-09-17T11:37:06.969Z,100241.53
2023-09-17T11:39:36.707Z,100233.50
2023-09-17T11:42:13.860Z,100230.78
2023-09-17T11:44:46.358Z,100237.63
2023-09-17T11:47:15.658Z,100239.56
2023-09-17T11:49:44.118Z,100246.78
2023-09-17T11:52:13.443Z,100234.16
2023-09-17T11:54:50.561Z,100241.97
2023-09-17T11:57:26.372Z,100241.13
2023-09-17T11:59:56.886Z,100236.56
2023-09-17T12:02:25.347Z,100243.28
2023-09-17T12:04:54.656Z,100237.56
2023-09-17T12:07:23.411Z,100242.97
2023-09-17T12:10:01.905Z,100247.91
2023-09-17T12:12:33.661Z,100247.91
2023-09-17T12:15:05.043Z,100239.19
2023-09-17T12:17:43.991Z,100237.19
2023-09-17T12:20:24.089Z,100238.69
2023-09-17T12:22:57.889Z,100239.38
2023-09-17T12:25:26.405Z,100246.25
2023-09-17T12:27:54.253Z,100242.91
2023-09-17T12:30:27.337Z,100245.81
2023-09-17T12:32:55.452Z,100246.22
2023-09-17T12:35:24.178Z,100238.91
2023-09-17T12:37:52.168Z,100243.16
2023-09-17T12:40:22.789Z,100242.22
2023-09-17T12:42:51.649Z,100247.38
2023-09-17T12:45:20.427Z,100239.91
2023-09-17T12:47:49.679Z,100253.69
2023-09-17T12:50:19.732Z,100256.97
2023-09-17T12:52:47.737Z,100254.78
2023-09-17T12:55:15.972Z,100251.53
2023-09-17T12:57:49.234Z,100253.75
2023-09-17T13:00:18.270Z,100251.53
2023-09-17T13:02:46.569Z,100232.56
2023-09-17T13:05:21.284Z,100240.53
2023-09-17T13:07:49.690Z,100245.53
2023-09-17T13:10:21.424Z,100236.53
2023-09-17T13:12:49.528Z,100235.47
2023-09-17T13:15:17.746Z,100235.28
2023-09-17T13:17:46.679Z,100241.59
2023-09-17T13:20:15.154Z,100238.47
2023-09-17T13:22:44.408Z,100244.84
2023-09-17T13:25:12.841Z,100230.88
2023-09-17T13:27:40.763Z,100234.53
2023-09-17T13:30:10.589Z,100233.75
2023-09-17T13:32:38.544Z,100227.94
2023-09-17T13:35:12.023Z,100230.53
2023-09-17T13:37:41.448Z,100229.34
2023-09-17T13:40:11.286Z,100222.59
2023-09-17T13:42:39.175Z,100225.13
2023-09-17T13:45:08.535Z,100230.63
2023-09-17T13:47:36.447Z,100229.47
2023-09-17T13:50:05.713Z,100230.03
2023-09-17T13:52:33.533Z,100222.81
2023-09-17T13:55:01.354Z,100224.91
2023-09-17T13:57:30.638Z,100220.41
2023-09-17T13:59:58.446Z,100217.16
2023-09-17T14:02:26.349Z,100208.47
2023-09-17T14:04:54.300Z,100209.97
2023-09-17T14:07:22.151Z,100205.34
2023-09-17T14:09:50.060Z,100205.53
2023-09-17T14:12:17.936Z,100203.06
2023-09-17T14:14:47.059Z,100203.91
2023-09-17T14:17:16.959Z,100194.00
2023-09-17T14:19:46.358Z,100200.88
2023-09-17T14:22:14.913Z,100203.91
2023-09-17T14:24:42.841Z,100197.78
2023-09-17T14:27:10.697Z,100198.03
2023-09-17T14:29:38.876Z,100207.09
2023-09-17T14:32:08.322Z,100205.50
2023-09-17T14:34:36.371Z,100201.06
2023-09-17T14:37:05.315Z,100208.38
2023-09-17T14:39:33.122Z,100202.66
2023-09-17T14:42:01.053Z,100208.66
2023-09-17T14:44:28.807Z,100205.13
2023-09-17T14:47:00.113Z,100200.69
2023-09-17T14:49:29.425Z,100206.47
2023-09-17T14:51:58.523Z,100199.00
2023-09-17T14:54:26.993Z,100195.84
2023-09-17T14:56:54.860Z,100194.88
2023-09-17T14:59:22.834Z,100186.53
2023-09-17T15:01:59.818Z,100189.94
2023-09-17T15:04:30.010Z,100186.44
2023-09-17T15:06:58.201Z,100189.56
2023-09-17T15:09:26.935Z,100187.84
2023-09-17T15:11:55.101Z,100186.75
2023-09-17T15:14:23.020Z,100193.66
2023-09-17T15:16:50.956Z,100194.69
2023-09-17T15:19:18.924Z,100183.91
2023-09-17T15:21:48.511Z,100187.56
2023-09-17T15:24:16.472Z,100192.47
2023-09-17T15:26:44.894Z,100188.69
2023-09-17T15:29:14.291Z,100191.19
2023-09-17T15:31:42.544Z,100190.59
2023-09-17T15:34:10.964Z,100192.22
2023-09-17T15:36:42.172Z,100188.25
2023-09-17T15:39:11.483Z,100190.53
2023-09-17T15:41:39.318Z,100182.38
2023-09-17T15:44:07.960Z,100178.81
2023-09-17T15:46:36.820Z,100186.56
2023-09-17T15:49:04.993Z,100188.88
2023-09-17T15:51:33.209Z,100183.38
2023-09-17T15:54:01.015Z,100188.13
2023-09-17T15:56:30.573Z,100188.44
2023-09-17T15:58:58.551Z,100187.69
2023-09-17T16:01:26.536Z,100183.13
2023-09-17T16:03:54.468Z,100180.53
2023-09-17T16:06:24.805Z,100185.53
2023-09-17T16:08:53.771Z,100182.09
2023-09-17T16:11:22.075Z,100186.06
2023-09-17T16:13:51.605Z,100187.59
2023-09-17T16:16:19.819Z,100180.00
2023-09-17T16:18:47.801Z,100188.50
2023-09-17T16:21:16.241Z,100191.66
2023-09-17T16:23:44.563Z,100203.88
2023-09-17T16:26:12.476Z,100199.88
2023-09-17T16:28:40.530Z,100207.16
2023-09-17T16:31:09.826Z,100203.72
2023-09-17T16:33:37.895Z,100209.69
2023-09-17T16:36:07.379Z,100203.19
2023-09-17T16:38:35.332Z,100203.38
2023-09-17T16:41:03.521Z,100196.69
2023-09-17T16:43:31.548Z,100196.72
2023-09-17T16:45:59.562Z,100191.19
2023-09-17T16:48:28.989Z,100193.34
2023-09-17T16:50:56.941Z,100199.25
2023-09-17T16:53:25.054Z,100191.97
2023-09-17T16:55:52.986Z,100188.09
2023-09-17T16:58:20.913Z,100180.97
2023-09-17T17:00:49.857Z,100182.28
2023-09-17T17:03:18.093Z,100179.13
2023-09-17T17:05:47.433Z,100173.34
2023-09-17T17:08:15.637Z,100172.34
2023-09-17T17:10:43.658Z,100166.19
2023-09-17T17:13:13.135Z,100175.56
2023-09-17T17:15:41.131Z,100180.53
2023-09-17T17:18:10.997Z,100165.72
2023-09-17T17:20:38.932Z,100172.72
2023-09-17T17:23:08.423Z,100171.63
2023-09-17T17:25:36.728Z,100172.03
2023-09-17T17:28:05.476Z,100174.16
2023-09-17T17:30:33.443Z,100167.25
2023-09-17T17:33:01.384Z,100167.53
2023-09-17T17:35:29.403Z,100167.81
2023-09-17T17:37:57.437Z,100169.28
2023-09-17T17:40:27.855Z,100177.91
2023-09-17T17:42:56.347Z,100172.56
2023-09-17T17:45:24.609Z,100182.81
2023-09-17T17:47:52.584Z,100183.25
2023-09-17T17:50:20.487Z,100178.03
2023-09-17T17:52:48.712Z,100179.56
2023-09-17T17:55:16.627Z,100178.34
2023-09-17T17:57:45.859Z,100181.78
2023-09-17T18:00:14.601Z,100173.25
2023-09-17T18:02:47.207Z,100178.59
2023-09-17T18:05:15.549Z,100167.31
2023-09-17T18:07:46.031Z,100165.97
2023-09-17T18:10:14.925Z,100167.84
2023-09-17T18:12:43.198Z,100167.94
2023-09-17T18:15:14.736Z,100160.03
2023-09-17T18:17:42.642Z,100170.13
2023-09-17T18:20:13.399Z,100165.41
2023-09-17T18:22:41.550Z,100167.16
2023-09-17T18:25:09.632Z,100171.06
2023-09-17T18:27:38.767Z,100175.03
2023-09-17T18:30:08.006Z,100166.50
2023-09-17T18:32:37.329Z,100155.91
2023-09-17T18:35:06.235Z,100159.38
2023-09-17T18:37:34.499Z,100162.03
2023-09-17T18:40:02.678Z,100156.84
2023-09-17T18:42:30.628Z,100159.81
2023-09-17T18:44:58.634Z,100154.50
2023-09-17T18:47:26.624Z,100165.34
2023-09-17T18:49:56.083Z,100159.44
2023-09-17T18:52:25.625Z,100158.84
2023-09-17T18:54:55.445Z,100162.66
2023-09-17T18:57:23.536Z,100154.03
2023-09-17T18:59:55.143Z,100155.81
2023-09-17T19:02:23.535Z,100157.66
2023-09-17T19:04:51.561Z,100152.25
2023-09-17T19:07:20.820Z,100161.03
2023-09-17T19:09:49.129Z,100163.81
2023-09-17T19:12:16.930Z,100166.41
2023-09-17T19:14:47.529Z,100157.88
2023-09-17T19:17:15.836Z,100154.19
2023-09-17T19:19:43.760Z,100146.25
2023-09-17T19:22:11.647Z,100142.78
2023-09-17T19:24:41.159Z,100137.03
2023-09-17T19:27:09.681Z,100131.59
2023-09-17T19:29:37.504Z,100129.78
2023-09-17T19:32:05.461Z,100126.38
2023-09-17T19:34:33.635Z,100120.22
2023-09-17T19:37:01.779Z,100116.66
2023-09-17T19:39:29.944Z,100114.81
2023-09-17T19:41:59.332Z,100107.91
2023-09-17T19:44:27.254Z,100106.28
2023-09-17T19:46:57.769Z,100100.97
2023-09-17T19:49:27.465Z,100093.88
2023-09-17T19:51:55.365Z,100092.16
2023-09-17T19:54:23.291Z,100086.16
2023-09-17T19:56:51.439Z,100084.22
2023-09-17T19:59:20.745Z,100094.16
2023-09-17T20:01:49.228Z,100091.59
2023-09-17T20:04:17.410Z,100090.06
2023-09-17T20:06:54.535Z,100099.72
2023-09-17T20:09:23.850Z,100100.66
2023-09-17T20:11:52.354Z,100093.63
2023-09-17T20:14:22.408Z,100082.06
2023-09-17T20:16:50.351Z,100081.13
2023-09-17T20:19:18.228Z,100076.69
2023-09-17T20:21:46.160Z,100074.66
2023-09-17T20:24:14.737Z,100070.38
2023-09-17T20:26:45.520Z,100074.50
2023-09-17T20:29:13.549Z,100079.03
2023-09-17T20:31:42.853Z,100070.00
2023-09-17T20:34:14.693Z,100077.97
2023-09-17T20:36:44.062Z,100071.91
2023-09-17T20:39:15.112Z,100068.47
2023-09-17T20:41:46.753Z,100071.31
2023-09-17T20:44:14.818Z,100069.78
2023-09-17T20:46:44.098Z,100064.72
2023-09-17T20:49:11.915Z,100064.53
2023-09-17T20:51:39.772Z,100062.00
2023-09-17T20:54:08.274Z,100059.56
2023-09-17T20:56:36.090Z,100064.34
2023-09-17T20:59:04.191Z,100059.69
2023-09-17T21:01:33.134Z,100068.63
2023-09-17T21:04:03.733Z,100075.66
2023-09-17T21:06:31.575Z,100075.66
2023-09-17T21:09:03.300Z,100073.13
2023-09-17T21:11:32.738Z,100076.94
2023-09-17T21:14:00.530Z,100084.56
2023-09-17T21:16:29.360Z,100073.22
2023-09-17T21:18:57.275Z,100071.63
2023-09-17T21:21:26.428Z,100075.09
2023-09-17T21:23:56.442Z,100073.09
2023-09-17T21:26:25.108Z,100076.00
2023-09-17T21:28:54.136Z,100073.44
2023-09-17T21:31:23.060Z,100065.78
2023-09-17T21:33:51.014Z,100065.25
2023-09-17T21:36:19.015Z,100057.25
2023-09-17T21:38:48.346Z,100053.66
2023-09-17T21:41:16.551Z,100048.13
2023-09-17T21:43:44.443Z,100051.75
2023-09-17T21:46:12.349Z,100046.31
2023-09-17T21:48:40.262Z,100046.06
2023-09-17T21:51:08.719Z,100047.44
2023-09-17T21:53:37.461Z,100040.28
2023-09-17T21:56:06.920Z,100038.47
2023-09-17T21:58:34.971Z,100030.56
2023-09-17T22:01:03.091Z,100031.66
2023-09-17T22:03:31.940Z,100029.84
2023-09-17T22:06:03.399Z,100030.63
2023-09-17T22:08:34.265Z,100031.59
2023-09-17T22:11:06.716Z,100028.13
2023-09-17T22:13:35.001Z,100024.75
2023-09-17T22:16:04.733Z,100033.59
2023-09-17T22:18:32.637Z,100028.75
2023-09-17T22:21:08.293Z,100024.25
2023-09-17T22:23:36.770Z,100027.09
2023-09-17T22:26:09.829Z,100020.91
2023-09-17T22:28:37.847Z,100023.81
2023-09-17T22:31:11.419Z,100025.44
2023-09-17T22:33:41.519Z,100014.03
2023-09-17T22:36:10.699Z,100013.00
2023-09-17T22:38:43.079Z,100003.91
2023-09-17T22:41:18.082Z,100014.47
2023-09-17T22:43:48.583Z,100004.97
2023-09-17T22:46:17.934Z,100004.97
2023-09-17T22:48:50.731Z,99997.81
2023-09-17T22:51:20.643Z,99998.81
2023-09-17T22:53:49.672Z,100000.88
2023-09-17T22:56:19.377Z,99995.28
2023-09-17T22:58:47.562Z,99989.41
2023-09-17T23:01:18.612Z,99992.78
2023-09-17T23:03:46.974Z,99982.56
2023-09-17T23:06:14.876Z,99974.09
2023-09-17T23:08:43.349Z,99965.31
2023-09-17T23:11:11.372Z,99958.28
2023-09-17T23:13:42.368Z,99953.97
2023-09-17T23:16:10.313Z,99946.34
2023-09-17T23:18:40.476Z,99941.06
2023-09-17T23:21:08.569Z,99943.03
2023-09-17T23:23:36.394Z,99937.81
2023-09-17T23:26:04.838Z,99943.00
2023-09-17T23:28:37.871Z,99937.75
2023-09-17T23:31:07.458Z,99940.47
2023-09-17T23:33:35.728Z,99938.97
2023-09-17T23:36:04.379Z,99931.63
2023-09-17T23:38:32.642Z,99920.06
2023-09-17T23:41:01.064Z,99927.56
2023-09-17T23:43:28.962Z,99930.31
2023-09-17T23:45:58.155Z,99924.38
2023-09-17T23:48:29.075Z,99908.75
2023-09-17T23:50:57.009Z,99905.28
2023-09-17T23:53:25.067Z,99893.81
2023-09-17T23:55:53.535Z,99888.63
2023-09-17T23:58:22.258Z,99878.47
